Terminal Aerodrome Forecast
Issued by NWS Green Bay, WI

Home | Current Version | Previous Version | Text Only | Print | Product List | Glossary Off
Versions: 1 2 3 4 5 6 7 8 9 10 11 12 13 14 15 16 17 18 19 20 21 22 23 24 25 26 27 28 29 30 31 32 33 34 35 36 37 38 39 40 41 42 43 44 45 46 47 48

685
FTUS43 KGRB 202202 AAC
TAFGRB
TAF AMD
KGRB 202202Z 2022/2118 16012KT P6SM SCT050 BKN100
     FM210000 20006KT P6SM VCSH SCT025 BKN050
      TEMPO 2100/2104 3SM TSRA BKN025CB
     FM210500 35005KT 4SM BR BKN015 BKN025
     FM210900 04007KT 3SM BR BKN008 BKN015
     FM211500 07007KT P6SM BKN015 BKN025=

USA.gov is the U.S. government's official web portal to all federal, state and local government web resources and services.